sensor_id;sensor_type;location;lat;lon;timestamp;temperature;humidity
83102;SHT31;72973;51.784;4.660;2024-03-23T00:55:47;9.12;80.52
83102;SHT31;72973;51.784;4.660;2024-03-23T00:58:17;9.08;80.21
83102;SHT31;72973;51.784;4.660;2024-03-23T01:00:46;9.14;79.52
83102;SHT31;72973;51.784;4.660;2024-03-23T01:03:21;9.12;78.65
83102;SHT31;72973;51.784;4.660;2024-03-23T01:05:48;9.14;79.02
83102;SHT31;72973;51.784;4.660;2024-03-23T01:08:19;9.14;78.86
83102;SHT31;72973;51.784;4.660;2024-03-23T01:11:06;9.09;78.55
83102;SHT31;72973;51.784;4.660;2024-03-23T01:13:36;9.09;78.50
83102;SHT31;72973;51.784;4.660;2024-03-23T01:16:03;9.06;78.32
83102;SHT31;72973;51.784;4.660;2024-03-23T01:18:29;9.06;78.34
83102;SHT31;72973;51.784;4.660;2024-03-23T01:20:59;8.97;78.95
83102;SHT31;72973;51.784;4.660;2024-03-23T01:23:27;8.91;79.60
83102;SHT31;72973;51.784;4.660;2024-03-23T01:25:54;8.82;79.96
83102;SHT31;72973;51.784;4.660;2024-03-23T01:28:22;8.81;80.00
83102;SHT31;72973;51.784;4.660;2024-03-23T01:30:48;8.82;79.92
83102;SHT31;72973;51.784;4.660;2024-03-23T01:33:15;8.77;80.14
83102;SHT31;72973;51.784;4.660;2024-03-23T01:35:45;8.78;80.43
83102;SHT31;72973;51.784;4.660;2024-03-23T01:38:12;8.85;80.75
83102;SHT31;72973;51.784;4.660;2024-03-23T01:40:39;8.93;80.21
83102;SHT31;72973;51.784;4.660;2024-03-23T01:43:08;8.97;79.95
83102;SHT31;72973;51.784;4.660;2024-03-23T01:45:35;8.91;79.76
83102;SHT31;72973;51.784;4.660;2024-03-23T01:48:02;8.88;79.41
83102;SHT31;72973;51.784;4.660;2024-03-23T01:50:31;8.70;80.16
83102;SHT31;72973;51.784;4.660;2024-03-23T01:53:05;8.63;80.50
83102;SHT31;72973;51.784;4.660;2024-03-23T01:55:33;8.47;80.72
83102;SHT31;72973;51.784;4.660;2024-03-23T01:58:00;8.51;80.91
83102;SHT31;72973;51.784;4.660;2024-03-23T02:00:26;8.46;81.17
83102;SHT31;72973;51.784;4.660;2024-03-23T02:02:57;8.37;81.23
83102;SHT31;72973;51.784;4.660;2024-03-23T02:05:30;8.23;81.28
83102;SHT31;72973;51.784;4.660;2024-03-23T02:07:56;8.13;81.48
83102;SHT31;72973;51.784;4.660;2024-03-23T02:10:23;8.26;81.83
83102;SHT31;72973;51.784;4.660;2024-03-23T02:12:50;8.25;81.97
83102;SHT31;72973;51.784;4.660;2024-03-23T02:15:17;8.20;81.89
83102;SHT31;72973;51.784;4.660;2024-03-23T02:17:53;8.19;81.73
83102;SHT31;72973;51.784;4.660;2024-03-23T02:20:19;8.09;81.97
83102;SHT31;72973;51.784;4.660;2024-03-23T02:22:46;8.23;81.71
83102;SHT31;72973;51.784;4.660;2024-03-23T02:25:12;8.22;81.60
83102;SHT31;72973;51.784;4.660;2024-03-23T02:27:43;8.28;80.65
83102;SHT31;72973;51.784;4.660;2024-03-23T02:30:10;8.26;80.75
83102;SHT31;72973;51.784;4.660;2024-03-23T02:32:42;8.20;80.84
83102;SHT31;72973;51.784;4.660;2024-03-23T02:35:12;8.03;80.75
83102;SHT31;72973;51.784;4.660;2024-03-23T02:37:39;7.96;81.14
83102;SHT31;72973;51.784;4.660;2024-03-23T02:40:06;7.88;81.27
83102;SHT31;72973;51.784;4.660;2024-03-23T02:42:33;7.84;81.35
83102;SHT31;72973;51.784;4.660;2024-03-23T02:45:01;7.70;81.14
83102;SHT31;72973;51.784;4.660;2024-03-23T02:47:34;7.60;81.34
83102;SHT31;72973;51.784;4.660;2024-03-23T02:50:01;7.50;81.24
83102;SHT31;72973;51.784;4.660;2024-03-23T02:52:41;7.46;81.88
83102;SHT31;72973;51.784;4.660;2024-03-23T02:55:12;7.50;82.24
83102;SHT31;72973;51.784;4.660;2024-03-23T02:57:46;7.51;82.06
83102;SHT31;72973;51.784;4.660;2024-03-23T03:00:13;7.37;81.74
83102;SHT31;72973;51.784;4.660;2024-03-23T03:02:42;7.24;81.73
83102;SHT31;72973;51.784;4.660;2024-03-23T03:05:09;7.17;81.80
83102;SHT31;72973;51.784;4.660;2024-03-23T03:07:37;7.12;81.99
83102;SHT31;72973;51.784;4.660;2024-03-23T03:10:11;7.22;81.88
83102;SHT31;72973;51.784;4.660;2024-03-23T03:12:41;7.12;82.01
83102;SHT31;72973;51.784;4.660;2024-03-23T03:15:09;7.03;81.99
83102;SHT31;72973;51.784;4.660;2024-03-23T03:17:44;7.03;82.11
83102;SHT31;72973;51.784;4.660;2024-03-23T03:20:14;7.02;82.11
83102;SHT31;72973;51.784;4.660;2024-03-23T03:22:42;7.23;81.52
83102;SHT31;72973;51.784;4.660;2024-03-23T03:25:09;7.27;81.40
83102;SHT31;72973;51.784;4.660;2024-03-23T03:27:36;7.23;81.34
83102;SHT31;72973;51.784;4.660;2024-03-23T03:30:08;7.16;81.32
83102;SHT31;72973;51.784;4.660;2024-03-23T03:32:38;7.07;81.30
83102;SHT31;72973;51.784;4.660;2024-03-23T03:35:05;7.16;81.21
83102;SHT31;72973;51.784;4.660;2024-03-23T03:37:32;7.13;81.05
83102;SHT31;72973;51.784;4.660;2024-03-23T03:39:58;7.19;80.83
83102;SHT31;72973;51.784;4.660;2024-03-23T03:42:25;7.17;80.68
83102;SHT31;72973;51.784;4.660;2024-03-23T03:44:52;7.23;80.49
83102;SHT31;72973;51.784;4.660;2024-03-23T03:47:22;7.26;80.16
83102;SHT31;72973;51.784;4.660;2024-03-23T03:49:55;7.27;79.99
83102;SHT31;72973;51.784;4.660;2024-03-23T03:52:22;7.24;79.87
83102;SHT31;72973;51.784;4.660;2024-03-23T03:54:49;7.22;79.99
83102;SHT31;72973;51.784;4.660;2024-03-23T03:57:15;7.19;79.75
83102;SHT31;72973;51.784;4.660;2024-03-23T03:59:45;7.23;79.56
83102;SHT31;72973;51.784;4.660;2024-03-23T04:02:12;7.19;79.50
83102;SHT31;72973;51.784;4.660;2024-03-23T04:04:39;7.24;79.37
83102;SHT31;72973;51.784;4.660;2024-03-23T04:07:06;7.26;79.28
83102;SHT31;72973;51.784;4.660;2024-03-23T04:09:33;7.23;79.27
83102;SHT31;72973;51.784;4.660;2024-03-23T04:12:00;7.22;79.32
83102;SHT31;72973;51.784;4.660;2024-03-23T04:14:27;7.23;79.20
83102;SHT31;72973;51.784;4.660;2024-03-23T04:16:53;7.02;79.72
83102;SHT31;72973;51.784;4.660;2024-03-23T04:19:24;7.06;79.63
83102;SHT31;72973;51.784;4.660;2024-03-23T04:21:51;7.06;79.55
83102;SHT31;72973;51.784;4.660;2024-03-23T04:24:18;7.02;79.49
83102;SHT31;72973;51.784;4.660;2024-03-23T04:26:47;6.95;79.69
83102;SHT31;72973;51.784;4.660;2024-03-23T04:29:14;7.02;79.45
83102;SHT31;72973;51.784;4.660;2024-03-23T04:31:40;6.91;79.58
83102;SHT31;72973;51.784;4.660;2024-03-23T04:34:07;6.88;79.54
83102;SHT31;72973;51.784;4.660;2024-03-23T04:36:39;6.86;79.67
83102;SHT31;72973;51.784;4.660;2024-03-23T04:39:09;6.89;79.49
83102;SHT31;72973;51.784;4.660;2024-03-23T04:41:40;6.95;79.17
83102;SHT31;72973;51.784;4.660;2024-03-23T04:44:08;7.02;78.73
83102;SHT31;72973;51.784;4.660;2024-03-23T04:46:35;6.98;78.77
83102;SHT31;72973;51.784;4.660;2024-03-23T04:49:01;6.95;78.83
83102;SHT31;72973;51.784;4.660;2024-03-23T04:51:36;6.91;79.25
83102;SHT31;72973;51.784;4.660;2024-03-23T04:54:08;6.86;79.02
83102;SHT31;72973;51.784;4.660;2024-03-23T04:56:34;6.96;78.86
83102;SHT31;72973;51.784;4.660;2024-03-23T04:59:06;6.99;78.67
83102;SHT31;72973;51.784;4.660;2024-03-23T05:01:33;7.06;78.12
83102;SHT31;72973;51.784;4.660;2024-03-23T05:03:59;7.07;78.03
83102;SHT31;72973;51.784;4.660;2024-03-23T05:06:26;7.15;77.89
83102;SHT31;72973;51.784;4.660;2024-03-23T05:08:52;7.09;77.96
83102;SHT31;72973;51.784;4.660;2024-03-23T05:11:19;7.09;78.13
83102;SHT31;72973;51.784;4.660;2024-03-23T05:13:47;7.23;78.21
83102;SHT31;72973;51.784;4.660;2024-03-23T05:16:14;7.30;77.55
83102;SHT31;72973;51.784;4.660;2024-03-23T05:18:40;7.36;77.61
83102;SHT31;72973;51.784;4.660;2024-03-23T05:21:07;7.46;77.25
83102;SHT31;72973;51.784;4.660;2024-03-23T05:23:33;7.47;77.44
83102;SHT31;72973;51.784;4.660;2024-03-23T05:26:00;7.46;77.10
83102;SHT31;72973;51.784;4.660;2024-03-23T05:28:27;7.40;77.90
83102;SHT31;72973;51.784;4.660;2024-03-23T05:30:54;7.37;77.74
83102;SHT31;72973;51.784;4.660;2024-03-23T05:33:21;7.28;77.83
83102;SHT31;72973;51.784;4.660;2024-03-23T05:35:59;7.38;77.76
83102;SHT31;72973;51.784;4.660;2024-03-23T05:38:27;7.42;77.38
83102;SHT31;72973;51.784;4.660;2024-03-23T05:41:00;7.46;77.87
83102;SHT31;72973;51.784;4.660;2024-03-23T05:43:30;7.44;77.99
83102;SHT31;72973;51.784;4.660;2024-03-23T05:46:12;7.44;77.76
83102;SHT31;72973;51.784;4.660;2024-03-23T05:48:39;7.53;77.94
83102;SHT31;72973;51.784;4.660;2024-03-23T05:51:15;7.50;78.06
83102;SHT31;72973;51.784;4.660;2024-03-23T05:53:42;7.47;78.40
83102;SHT31;72973;51.784;4.660;2024-03-23T05:56:09;7.47;78.42
83102;SHT31;72973;51.784;4.660;2024-03-23T05:58:36;7.48;78.35
83102;SHT31;72973;51.784;4.660;2024-03-23T06:01:03;7.51;78.52
83102;SHT31;72973;51.784;4.660;2024-03-23T06:03:29;7.50;78.73
83102;SHT31;72973;51.784;4.660;2024-03-23T06:05:56;7.50;78.94
83102;SHT31;72973;51.784;4.660;2024-03-23T06:08:23;7.53;78.67
83102;SHT31;72973;51.784;4.660;2024-03-23T06:10:53;7.60;78.58
83102;SHT31;72973;51.784;4.660;2024-03-23T06:13:20;7.63;78.46
83102;SHT31;72973;51.784;4.660;2024-03-23T06:15:51;7.77;78.20
83102;SHT31;72973;51.784;4.660;2024-03-23T06:18:18;7.86;78.41
83102;SHT31;72973;51.784;4.660;2024-03-23T06:20:44;7.91;77.64
83102;SHT31;72973;51.784;4.660;2024-03-23T06:23:11;7.98;78.11
83102;SHT31;72973;51.784;4.660;2024-03-23T06:25:39;7.95;77.91
83102;SHT31;72973;51.784;4.660;2024-03-23T06:28:05;7.88;77.97
83102;SHT31;72973;51.784;4.660;2024-03-23T06:30:35;7.85;78.14
83102;SHT31;72973;51.784;4.660;2024-03-23T06:33:05;7.88;78.04
83102;SHT31;72973;51.784;4.660;2024-03-23T06:35:35;7.89;78.04
83102;SHT31;72973;51.784;4.660;2024-03-23T06:38:02;7.91;77.27
83102;SHT31;72973;51.784;4.660;2024-03-23T06:40:29;7.93;76.82
83102;SHT31;72973;51.784;4.660;2024-03-23T06:42:55;8.02;76.60
83102;SHT31;72973;51.784;4.660;2024-03-23T06:45:21;8.14;76.28
83102;SHT31;72973;51.784;4.660;2024-03-23T06:47:49;8.28;75.68
83102;SHT31;72973;51.784;4.660;2024-03-23T06:50:17;8.51;75.77
83102;SHT31;72973;51.784;4.660;2024-03-23T06:52:44;8.59;75.93
83102;SHT31;72973;51.784;4.660;2024-03-23T06:55:10;8.60;75.99
83102;SHT31;72973;51.784;4.660;2024-03-23T06:57:36;8.54;75.66
83102;SHT31;72973;51.784;4.660;2024-03-23T07:00:12;8.56;75.77
83102;SHT31;72973;51.784;4.660;2024-03-23T07:02:39;8.59;76.04
83102;SHT31;72973;51.784;4.660;2024-03-23T07:05:06;8.61;76.09
83102;SHT31;72973;51.784;4.660;2024-03-23T07:07:33;8.63;75.68
83102;SHT31;72973;51.784;4.660;2024-03-23T07:09:59;8.51;75.84
83102;SHT31;72973;51.784;4.660;2024-03-23T07:12:25;8.40;76.29
83102;SHT31;72973;51.784;4.660;2024-03-23T07:14:52;8.29;76.13
83102;SHT31;72973;51.784;4.660;2024-03-23T07:17:18;8.32;76.46
83102;SHT31;72973;51.784;4.660;2024-03-23T07:19:46;8.25;76.05
83102;SHT31;72973;51.784;4.660;2024-03-23T07:22:12;8.33;75.98
83102;SHT31;72973;51.784;4.660;2024-03-23T07:24:39;8.36;76.03
83102;SHT31;72973;51.784;4.660;2024-03-23T07:27:06;8.46;75.22
83102;SHT31;72973;51.784;4.660;2024-03-23T07:29:36;8.67;75.09
83102;SHT31;72973;51.784;4.660;2024-03-23T07:32:03;8.67;74.79
83102;SHT31;72973;51.784;4.660;2024-03-23T07:34:29;8.77;74.41
83102;SHT31;72973;51.784;4.660;2024-03-23T07:36:55;8.91;74.03
83102;SHT31;72973;51.784;4.660;2024-03-23T07:39:22;9.15;72.50
83102;SHT31;72973;51.784;4.660;2024-03-23T07:41:48;9.35;72.00
83102;SHT31;72973;51.784;4.660;2024-03-23T07:44:14;9.25;71.71
83102;SHT31;72973;51.784;4.660;2024-03-23T07:46:41;9.37;71.28
83102;SHT31;72973;51.784;4.660;2024-03-23T07:49:07;9.27;71.57
83102;SHT31;72973;51.784;4.660;2024-03-23T07:51:34;9.26;71.27
83102;SHT31;72973;51.784;4.660;2024-03-23T07:54:01;9.01;71.09
83102;SHT31;72973;51.784;4.660;2024-03-23T07:56:29;8.93;71.56
83102;SHT31;72973;51.784;4.660;2024-03-23T07:58:55;8.77;71.64
83102;SHT31;72973;51.784;4.660;2024-03-23T08:01:21;8.63;71.87
83102;SHT31;72973;51.784;4.660;2024-03-23T08:03:49;8.56;71.35
83102;SHT31;72973;51.784;4.660;2024-03-23T08:06:17;8.57;71.09
83102;SHT31;72973;51.784;4.660;2024-03-23T08:08:47;8.78;70.56
83102;SHT31;72973;51.784;4.660;2024-03-23T08:11:14;8.88;71.05
83102;SHT31;72973;51.784;4.660;2024-03-23T08:13:41;8.98;71.22
83102;SHT31;72973;51.784;4.660;2024-03-23T08:16:08;9.09;71.25
83102;SHT31;72973;51.784;4.660;2024-03-23T08:18:34;9.11;70.74
83102;SHT31;72973;51.784;4.660;2024-03-23T08:21:04;9.06;70.90
83102;SHT31;72973;51.784;4.660;2024-03-23T08:23:32;9.22;70.39
83102;SHT31;72973;51.784;4.660;2024-03-23T08:26:07;9.48;70.98
83102;SHT31;72973;51.784;4.660;2024-03-23T08:28:35;9.56;69.98
83102;SHT31;72973;51.784;4.660;2024-03-23T08:31:04;9.78;69.70
83102;SHT31;72973;51.784;4.660;2024-03-23T08:33:31;10.02;67.80
83102;SHT31;72973;51.784;4.660;2024-03-23T08:36:00;10.33;66.48
83102;SHT31;72973;51.784;4.660;2024-03-23T08:38:27;10.52;66.83
83102;SHT31;72973;51.784;4.660;2024-03-23T08:41:07;10.81;65.22
83102;SHT31;72973;51.784;4.660;2024-03-23T08:43:38;11.14;64.77
83102;SHT31;72973;51.784;4.660;2024-03-23T08:46:11;10.80;65.04
83102;SHT31;72973;51.784;4.660;2024-03-23T08:48:39;11.01;64.28
83102;SHT31;72973;51.784;4.660;2024-03-23T08:51:08;10.73;65.64
83102;SHT31;72973;51.784;4.660;2024-03-23T08:53:35;10.36;67.09
83102;SHT31;72973;51.784;4.660;2024-03-23T08:56:03;10.28;66.70
83102;SHT31;72973;51.784;4.660;2024-03-23T08:58:30;10.15;68.05
83102;SHT31;72973;51.784;4.660;2024-03-23T09:01:03;10.02;67.41
83102;SHT31;72973;51.784;4.660;2024-03-23T09:03:30;9.46;67.66
83102;SHT31;72973;51.784;4.660;2024-03-23T09:05:57;9.23;68.52
83102;SHT31;72973;51.784;4.660;2024-03-23T09:08:25;10.15;65.43
83102;SHT31;72973;51.784;4.660;2024-03-23T09:10:52;11.01;63.11
83102;SHT31;72973;51.784;4.660;2024-03-23T09:13:19;11.61;61.49
83102;SHT31;72973;51.784;4.660;2024-03-23T09:15:47;11.38;61.57
83102;SHT31;72973;51.784;4.660;2024-03-23T09:18:14;11.70;62.26
83102;SHT31;72973;51.784;4.660;2024-03-23T09:20:41;11.75;60.66
83102;SHT31;72973;51.784;4.660;2024-03-23T09:23:08;12.00;60.92
83102;SHT31;72973;51.784;4.660;2024-03-23T09:25:38;11.45;61.86
83102;SHT31;72973;51.784;4.660;2024-03-23T09:28:06;10.73;63.26
83102;SHT31;72973;51.784;4.660;2024-03-23T09:30:33;10.79;62.21
83102;SHT31;72973;51.784;4.660;2024-03-23T09:33:00;11.38;61.45
83102;SHT31;72973;51.784;4.660;2024-03-23T09:35:27;11.51;60.41
83102;SHT31;72973;51.784;4.660;2024-03-23T09:37:53;10.81;62.01
83102;SHT31;72973;51.784;4.660;2024-03-23T09:40:20;10.42;63.32
83102;SHT31;72973;51.784;4.660;2024-03-23T09:42:52;11.66;61.56
83102;SHT31;72973;51.784;4.660;2024-03-23T09:45:26;12.58;59.66
83102;SHT31;72973;51.784;4.660;2024-03-23T09:47:55;12.97;57.89
83102;SHT31;72973;51.784;4.660;2024-03-23T09:50:22;12.20;58.02
83102;SHT31;72973;51.784;4.660;2024-03-23T09:52:49;11.01;59.72
83102;SHT31;72973;51.784;4.660;2024-03-23T09:55:15;10.48;61.33
83102;SHT31;72973;51.784;4.660;2024-03-23T09:57:42;10.26;62.35
83102;SHT31;72973;51.784;4.660;2024-03-23T10:00:09;10.26;63.06
83102;SHT31;72973;51.784;4.660;2024-03-23T10:02:38;10.09;63.81
83102;SHT31;72973;51.784;4.660;2024-03-23T10:05:06;10.08;63.80
83102;SHT31;72973;51.784;4.660;2024-03-23T10:07:45;10.22;62.89
83102;SHT31;72973;51.784;4.660;2024-03-23T10:10:12;10.14;64.22
83102;SHT31;72973;51.784;4.660;2024-03-23T10:12:46;10.16;62.44
83102;SHT31;72973;51.784;4.660;2024-03-23T10:15:20;10.25;61.78
83102;SHT31;72973;51.784;4.660;2024-03-23T10:17:47;10.26;61.98
83102;SHT31;72973;51.784;4.660;2024-03-23T10:20:19;10.31;62.40
83102;SHT31;72973;51.784;4.660;2024-03-23T10:22:46;10.36;62.80
83102;SHT31;72973;51.784;4.660;2024-03-23T10:25:13;10.63;61.33
83102;SHT31;72973;51.784;4.660;2024-03-23T10:27:40;10.63;61.77
83102;SHT31;72973;51.784;4.660;2024-03-23T10:30:13;10.60;62.30
83102;SHT31;72973;51.784;4.660;2024-03-23T10:32:43;10.12;63.57
83102;SHT31;72973;51.784;4.660;2024-03-23T10:35:16;10.05;62.91
83102;SHT31;72973;51.784;4.660;2024-03-23T10:37:45;9.66;67.71
83102;SHT31;72973;51.784;4.660;2024-03-23T10:40:15;9.12;70.43
83102;SHT31;72973;51.784;4.660;2024-03-23T10:42:42;8.77;70.30
83102;SHT31;72973;51.784;4.660;2024-03-23T10:45:08;8.61;71.41
83102;SHT31;72973;51.784;4.660;2024-03-23T10:47:36;8.47;71.57
83102;SHT31;72973;51.784;4.660;2024-03-23T10:52:53;10.39;67.51
83102;SHT31;72973;51.784;4.660;2024-03-23T10:55:24;11.18;65.90
83102;SHT31;72973;51.784;4.660;2024-03-23T10:57:56;12.01;63.07
83102;SHT31;72973;51.784;4.660;2024-03-23T11:00:25;12.75;60.79
83102;SHT31;72973;51.784;4.660;2024-03-23T11:02:51;12.82;61.22
83102;SHT31;72973;51.784;4.660;2024-03-23T11:05:31;12.11;61.57
83102;SHT31;72973;51.784;4.660;2024-03-23T11:07:58;10.61;65.00
83102;SHT31;72973;51.784;4.660;2024-03-23T11:10:29;10.45;68.86
83102;SHT31;72973;51.784;4.660;2024-03-23T11:12:57;11.19;68.42
83102;SHT31;72973;51.784;4.660;2024-03-23T11:15:24;12.18;64.46
83102;SHT31;72973;51.784;4.660;2024-03-23T11:18:07;12.13;63.01
83102;SHT31;72973;51.784;4.660;2024-03-23T11:20:38;12.63;62.96
83102;SHT31;72973;51.784;4.660;2024-03-23T11:23:05;12.42;59.10
83102;SHT31;72973;51.784;4.660;2024-03-23T11:28:15;12.65;60.78
83102;SHT31;72973;51.784;4.660;2024-03-23T11:30:43;12.89;58.90
83102;SHT31;72973;51.784;4.660;2024-03-23T11:35:56;13.21;55.78
83102;SHT31;72973;51.784;4.660;2024-03-23T11:38:25;12.24;57.88
83102;SHT31;72973;51.784;4.660;2024-03-23T11:41:02;11.42;57.57
83102;SHT31;72973;51.784;4.660;2024-03-23T11:43:29;11.40;58.89
83102;SHT31;72973;51.784;4.660;2024-03-23T11:45:55;11.11;59.60
83102;SHT31;72973;51.784;4.660;2024-03-23T11:48:24;11.63;57.89
83102;SHT31;72973;51.784;4.660;2024-03-23T11:50:56;11.10;57.64
83102;SHT31;72973;51.784;4.660;2024-03-23T11:53:33;12.23;56.28
83102;SHT31;72973;51.784;4.660;2024-03-23T11:56:07;12.70;54.95
83102;SHT31;72973;51.784;4.660;2024-03-23T11:58:35;11.89;57.22
83102;SHT31;72973;51.784;4.660;2024-03-23T12:01:04;11.04;59.59
83102;SHT31;72973;51.784;4.660;2024-03-23T12:03:48;11.65;60.66
83102;SHT31;72973;51.784;4.660;2024-03-23T12:06:19;11.45;59.34
83102;SHT31;72973;51.784;4.660;2024-03-23T12:08:49;11.89;57.06
83102;SHT31;72973;51.784;4.660;2024-03-23T12:11:17;10.97;58.97
83102;SHT31;72973;51.784;4.660;2024-03-23T12:13:47;11.07;59.83
83102;SHT31;72973;51.784;4.660;2024-03-23T12:16:24;10.74;59.28
83102;SHT31;72973;51.784;4.660;2024-03-23T12:19:05;10.50;59.52
83102;SHT31;72973;51.784;4.660;2024-03-23T12:21:31;10.06;60.72
83102;SHT31;72973;51.784;4.660;2024-03-23T12:23:58;9.94;61.83
83102;SHT31;72973;51.784;4.660;2024-03-23T12:26:27;9.75;62.24
83102;SHT31;72973;51.784;4.660;2024-03-23T12:28:54;9.67;62.95
83102;SHT31;72973;51.784;4.660;2024-03-23T12:31:20;9.70;61.52
83102;SHT31;72973;51.784;4.660;2024-03-23T12:33:54;9.57;61.46
83102;SHT31;72973;51.784;4.660;2024-03-23T12:36:21;9.64;61.19
83102;SHT31;72973;51.784;4.660;2024-03-23T12:38:51;9.60;60.73
83102;SHT31;72973;51.784;4.660;2024-03-23T12:41:24;10.16;61.18
83102;SHT31;72973;51.784;4.660;2024-03-23T12:43:50;11.15;59.53
83102;SHT31;72973;51.784;4.660;2024-03-23T12:46:17;12.70;56.77
83102;SHT31;72973;51.784;4.660;2024-03-23T12:48:47;13.58;54.60
83102;SHT31;72973;51.784;4.660;2024-03-23T12:51:16;13.89;53.14
83102;SHT31;72973;51.784;4.660;2024-03-23T12:53:42;12.86;52.90
83102;SHT31;72973;51.784;4.660;2024-03-23T12:56:12;12.30;52.24
83102;SHT31;72973;51.784;4.660;2024-03-23T12:58:39;12.07;53.96
83102;SHT31;72973;51.784;4.660;2024-03-23T13:01:08;12.85;52.55
83102;SHT31;72973;51.784;4.660;2024-03-23T13:03:35;11.75;54.80
83102;SHT31;72973;51.784;4.660;2024-03-23T13:06:04;12.52;55.11
83102;SHT31;72973;51.784;4.660;2024-03-23T13:08:34;13.37;52.75
83102;SHT31;72973;51.784;4.660;2024-03-23T13:11:01;14.31;49.76
83102;SHT31;72973;51.784;4.660;2024-03-23T13:13:27;14.08;50.28
83102;SHT31;72973;51.784;4.660;2024-03-23T13:15:54;14.31;49.51
83102;SHT31;72973;51.784;4.660;2024-03-23T13:18:20;14.41;48.91
83102;SHT31;72973;51.784;4.660;2024-03-23T13:20:47;13.38;51.49
83102;SHT31;72973;51.784;4.660;2024-03-23T13:23:14;13.43;51.76
83102;SHT31;72973;51.784;4.660;2024-03-23T13:25:41;12.42;54.71
83102;SHT31;72973;51.784;4.660;2024-03-23T13:28:08;12.13;56.30
83102;SHT31;72973;51.784;4.660;2024-03-23T13:30:37;12.21;54.92
83102;SHT31;72973;51.784;4.660;2024-03-23T13:33:04;12.21;54.02
83102;SHT31;72973;51.784;4.660;2024-03-23T13:35:30;12.48;52.88
83102;SHT31;72973;51.784;4.660;2024-03-23T13:37:58;13.47;51.30
83102;SHT31;72973;51.784;4.660;2024-03-23T13:40:25;14.23;49.78
83102;SHT31;72973;51.784;4.660;2024-03-23T13:42:54;14.45;49.13
83102;SHT31;72973;51.784;4.660;2024-03-23T13:45:20;13.37;51.41
83102;SHT31;72973;51.784;4.660;2024-03-23T13:47:47;12.28;52.62
83102;SHT31;72973;51.784;4.660;2024-03-23T13:50:14;11.76;54.16
83102;SHT31;72973;51.784;4.660;2024-03-23T13:52:41;11.15;53.97
83102;SHT31;72973;51.784;4.660;2024-03-23T13:55:08;10.69;54.99
83102;SHT31;72973;51.784;4.660;2024-03-23T13:57:35;10.25;57.09
83102;SHT31;72973;51.784;4.660;2024-03-23T14:00:02;10.11;59.25
83102;SHT31;72973;51.784;4.660;2024-03-23T14:02:30;10.02;60.38
83102;SHT31;72973;51.784;4.660;2024-03-23T14:04:57;9.87;60.52
83102;SHT31;72973;51.784;4.660;2024-03-23T14:07:24;9.97;60.86
83102;SHT31;72973;51.784;4.660;2024-03-23T14:09:51;9.91;60.79
83102;SHT31;72973;51.784;4.660;2024-03-23T14:12:21;9.99;61.73
83102;SHT31;72973;51.784;4.660;2024-03-23T14:14:47;9.88;61.50
83102;SHT31;72973;51.784;4.660;2024-03-23T14:17:14;9.67;59.19
83102;SHT31;72973;51.784;4.660;2024-03-23T14:19:41;9.53;59.28
83102;SHT31;72973;51.784;4.660;2024-03-23T14:24:43;9.83;61.65
83102;SHT31;72973;51.784;4.660;2024-03-23T14:27:10;10.21;59.79
83102;SHT31;72973;51.784;4.660;2024-03-23T14:29:37;9.85;60.95
83102;SHT31;72973;51.784;4.660;2024-03-23T14:32:03;9.36;61.29
83102;SHT31;72973;51.784;4.660;2024-03-23T14:34:30;9.61;61.18
83102;SHT31;72973;51.784;4.660;2024-03-23T14:36:57;10.45;59.46
83102;SHT31;72973;51.784;4.660;2024-03-23T14:39:24;10.69;59.51
83102;SHT31;72973;51.784;4.660;2024-03-23T14:44:24;11.32;59.25
83102;SHT31;72973;51.784;4.660;2024-03-23T14:46:51;10.50;61.63
83102;SHT31;72973;51.784;4.660;2024-03-23T14:49:17;9.95;63.53
83102;SHT31;72973;51.784;4.660;2024-03-23T14:51:44;9.50;64.60
83102;SHT31;72973;51.784;4.660;2024-03-23T14:54:12;9.06;66.45
83102;SHT31;72973;51.784;4.660;2024-03-23T14:56:39;9.53;65.41
83102;SHT31;72973;51.784;4.660;2024-03-23T14:59:05;9.43;65.94
83102;SHT31;72973;51.784;4.660;2024-03-23T15:01:33;9.14;66.18
83102;SHT31;72973;51.784;4.660;2024-03-23T15:04:14;8.87;66.41
83102;SHT31;72973;51.784;4.660;2024-03-23T15:06:41;8.71;66.31
83102;SHT31;72973;51.784;4.660;2024-03-23T15:09:08;8.41;66.74
83102;SHT31;72973;51.784;4.660;2024-03-23T15:11:37;8.54;66.55
83102;SHT31;72973;51.784;4.660;2024-03-23T15:14:03;8.77;65.95
83102;SHT31;72973;51.784;4.660;2024-03-23T15:16:30;9.48;63.83
83102;SHT31;72973;51.784;4.660;2024-03-23T15:18:56;10.71;60.65
83102;SHT31;72973;51.784;4.660;2024-03-23T15:21:23;11.72;58.45
83102;SHT31;72973;51.784;4.660;2024-03-23T15:23:49;12.03;57.12
83102;SHT31;72973;51.784;4.660;2024-03-23T15:26:15;12.48;55.56
83102;SHT31;72973;51.784;4.660;2024-03-23T15:31:16;12.80;54.35
83102;SHT31;72973;51.784;4.660;2024-03-23T15:33:43;12.31;54.74
83102;SHT31;72973;51.784;4.660;2024-03-23T15:36:09;12.59;54.26
83102;SHT31;72973;51.784;4.660;2024-03-23T15:38:35;12.70;53.74
83102;SHT31;72973;51.784;4.660;2024-03-23T15:41:02;11.95;55.10
83102;SHT31;72973;51.784;4.660;2024-03-23T15:43:30;10.79;58.41
83102;SHT31;72973;51.784;4.660;2024-03-23T15:45:59;10.21;60.29
83102;SHT31;72973;51.784;4.660;2024-03-23T15:48:30;9.71;61.86
83102;SHT31;72973;51.784;4.660;2024-03-23T15:50:58;9.47;62.70
83102;SHT31;72973;51.784;4.660;2024-03-23T15:53:26;10.52;60.80
83102;SHT31;72973;51.784;4.660;2024-03-23T15:58:23;12.08;55.51
83102;SHT31;72973;51.784;4.660;2024-03-23T16:01:07;12.35;55.36
83102;SHT31;72973;51.784;4.660;2024-03-23T16:03:37;12.75;54.65
83102;SHT31;72973;51.784;4.660;2024-03-23T16:06:05;12.90;54.03
83102;SHT31;72973;51.784;4.660;2024-03-23T16:08:34;12.65;54.58
83102;SHT31;72973;51.784;4.660;2024-03-23T16:11:00;11.66;57.62
83102;SHT31;72973;51.784;4.660;2024-03-23T16:13:28;10.98;59.47
83102;SHT31;72973;51.784;4.660;2024-03-23T16:15:55;10.64;60.96
83102;SHT31;72973;51.784;4.660;2024-03-23T16:18:25;10.33;61.62
83102;SHT31;72973;51.784;4.660;2024-03-23T16:21:03;10.28;62.49
83102;SHT31;72973;51.784;4.660;2024-03-23T16:23:32;10.14;63.04
83102;SHT31;72973;51.784;4.660;2024-03-23T16:25:58;10.12;64.03
83102;SHT31;72973;51.784;4.660;2024-03-23T16:28:30;10.21;64.29
83102;SHT31;72973;51.784;4.660;2024-03-23T16:31:00;10.19;64.35
83102;SHT31;72973;51.784;4.660;2024-03-23T16:33:28;10.18;64.54
83102;SHT31;72973;51.784;4.660;2024-03-23T16:35:59;10.29;64.71
83102;SHT31;72973;51.784;4.660;2024-03-23T16:38:27;10.53;64.03
83102;SHT31;72973;51.784;4.660;2024-03-23T16:43:24;12.58;58.89
83102;SHT31;72973;51.784;4.660;2024-03-23T16:48:25;13.38;57.02
83102;SHT31;72973;51.784;4.660;2024-03-23T16:50:53;13.17;55.97
83102;SHT31;72973;51.784;4.660;2024-03-23T16:53:20;12.73;57.16
83102;SHT31;72973;51.784;4.660;2024-03-23T16:55:46;12.56;56.73
83102;SHT31;72973;51.784;4.660;2024-03-23T16:58:12;12.48;55.81
83102;SHT31;72973;51.784;4.660;2024-03-23T17:00:39;12.40;54.90
83102;SHT31;72973;51.784;4.660;2024-03-23T17:03:06;12.18;55.55
83102;SHT31;72973;51.784;4.660;2024-03-23T17:05:37;11.58;57.06